Time;durP1;ratioP1;P1;durP2;ratioP2;P2;SDS_P1;SDS_P2;PMS_P1;PMS_P2;Temp;Humidity;BMP_temperature;BMP_pressure;BME280_temperature;BME280_humidity;BME280_pressure;Samples;Min_cycle;Max_cycle;Signal;HPM_P1;HPM_P2
2022/01/31 00:00:43;;;;;;;25.63;5.80;;;;;;;;;;4912961;29;20216;-73
2022/01/31 00:03:09;;;;;;;32.90;6.20;;;;;;;;;;4896868;29;20236;-72
2022/01/31 00:05:37;;;;;;;21.37;5.43;;;;;;;;;;4912873;29;20229;-72
2022/01/31 00:08:07;;;;;;;24.47;6.07;;;;;;;;;;4942841;28;20354;-74
2022/01/31 00:10:36;;;;;;;24.47;5.70;;;;;;;;;;4943638;28;20231;-72
2022/01/31 00:13:13;;;;;;;44.07;16.47;;;;;;;;;;4924333;28;20239;-72
2022/01/31 00:15:46;;;;;;;24.73;7.40;;;;;;;;;;4924598;29;20249;-72
2022/01/31 00:18:19;;;;;;;22.73;5.77;;;;;;;;;;4887731;29;20744;-72
2022/01/31 00:20:49;;;;;;;26.83;6.10;;;;;;;;;;4924468;29;20579;-72
2022/01/31 00:23:18;;;;;;;24.80;5.63;;;;;;;;;;4906892;28;20227;-73
2022/01/31 00:25:44;;;;;;;23.93;6.63;;;;;;;;;;4905107;29;20718;-73
2022/01/31 00:28:14;;;;;;;25.53;5.43;;;;;;;;;;4901830;28;20235;-71
2022/01/31 00:30:40;;;;;;;27.70;6.20;;;;;;;;;;4916345;29;20282;-72
2022/01/31 00:33:16;;;;;;;26.53;5.07;;;;;;;;;;4899782;28;20226;-72
2022/01/31 00:35:51;;;;;;;21.13;5.20;;;;;;;;;;4918557;29;20650;-72
2022/01/31 00:38:26;;;;;;;22.67;5.33;;;;;;;;;;4920225;28;20317;-72
2022/01/31 00:41:05;;;;;;;22.20;5.23;;;;;;;;;;4913673;28;20218;-71
2022/01/31 00:43:36;;;;;;;24.20;5.23;;;;;;;;;;4915753;29;20219;-72
2022/01/31 00:46:10;;;;;;;26.30;6.07;;;;;;;;;;4902628;28;20725;-73
2022/01/31 00:48:43;;;;;;;27.10;6.03;;;;;;;;;;4950533;28;20230;-73
2022/01/31 00:51:16;;;;;;;24.83;5.70;;;;;;;;;;4901883;28;20250;-71
2022/01/31 00:53:48;;;;;;;23.77;5.57;;;;;;;;;;4899848;29;20235;-72
2022/01/31 00:56:18;;;;;;;23.97;6.47;;;;;;;;;;4880871;28;20242;-72
2022/01/31 00:58:44;;;;;;;24.60;4.90;;;;;;;;;;4918536;29;21087;-73
2022/01/31 01:01:13;;;;;;;21.77;5.57;;;;;;;;;;4932735;28;20238;-72
2022/01/31 01:03:40;;;;;;;21.33;5.47;;;;;;;;;;4950311;29;20215;-72
2022/01/31 01:06:10;;;;;;;25.47;5.33;;;;;;;;;;4915581;28;20310;-73
2022/01/31 01:08:45;;;;;;;23.40;5.10;;;;;;;;;;4934189;29;20261;-73
2022/01/31 01:11:12;;;;;;;17.50;5.10;;;;;;;;;;4917579;28;20246;-72
2022/01/31 01:13:49;;;;;;;23.80;5.90;;;;;;;;;;4950173;29;20223;-73
2022/01/31 01:16:15;;;;;;;19.93;5.47;;;;;;;;;;4949423;28;20297;-72
2022/01/31 01:18:44;;;;;;;20.67;5.30;;;;;;;;;;4931661;29;20227;-72
2022/01/31 01:21:13;;;;;;;31.97;5.90;;;;;;;;;;4898557;28;20264;-71
2022/01/31 01:23:49;;;;;;;19.63;5.43;;;;;;;;;;4933760;29;20286;-73
2022/01/31 01:26:19;;;;;;;21.43;5.13;;;;;;;;;;4925806;28;20218;-72
2022/01/31 01:28:50;;;;;;;25.77;6.60;;;;;;;;;;4897290;29;20264;-73
2022/01/31 01:31:20;;;;;;;20.93;4.97;;;;;;;;;;4895341;29;20225;-72
2022/01/31 01:33:46;;;;;;;24.73;6.23;;;;;;;;;;4925178;28;20252;-73
2022/01/31 01:36:22;;;;;;;25.13;6.13;;;;;;;;;;4918254;28;20606;-73
2022/01/31 01:38:58;;;;;;;25.83;5.60;;;;;;;;;;4916142;29;20229;-73
2022/01/31 01:41:31;;;;;;;24.60;5.30;;;;;;;;;;4898221;28;20291;-73
2022/01/31 01:43:57;;;;;;;21.07;4.90;;;;;;;;;;4910461;29;20287;-72
2022/01/31 01:46:26;;;;;;;28.83;6.07;;;;;;;;;;4926677;29;20228;-72
2022/01/31 01:48:55;;;;;;;19.50;5.03;;;;;;;;;;4932343;28;20274;-74
2022/01/31 01:51:25;;;;;;;17.77;4.87;;;;;;;;;;4901822;28;20233;-72
2022/01/31 01:54:00;;;;;;;25.60;5.13;;;;;;;;;;4899150;29;20721;-73
2022/01/31 01:56:28;;;;;;;20.70;4.67;;;;;;;;;;4894039;29;20234;-72
2022/01/31 01:59:04;;;;;;;27.23;5.63;;;;;;;;;;4942869;28;20230;-72
2022/01/31 02:01:45;;;;;;;25.60;5.97;;;;;;;;;;4948634;29;20500;-73
2022/01/31 02:04:15;;;;;;;23.60;6.00;;;;;;;;;;4896910;29;20663;-72
2022/01/31 02:06:42;;;;;;;31.77;6.17;;;;;;;;;;4933984;29;20644;-72
2022/01/31 02:09:22;;;;;;;26.73;6.17;;;;;;;;;;4922012;28;20313;-73
2022/01/31 02:11:48;;;;;;;22.63;5.47;;;;;;;;;;4938708;29;20230;-71
2022/01/31 02:14:23;;;;;;;24.60;5.20;;;;;;;;;;4905364;28;20235;-72
2022/01/31 02:17:16;;;;;;;23.13;5.93;;;;;;;;;;4908003;28;20270;-73
2022/01/31 02:20:02;;;;;;;19.83;5.33;;;;;;;;;;4921686;29;20784;-72
2022/01/31 02:22:37;;;;;;;21.90;5.90;;;;;;;;;;4905235;29;20647;-71
2022/01/31 02:25:22;;;;;;;20.97;4.80;;;;;;;;;;4934404;28;20310;-72
2022/01/31 02:28:25;;;;;;;18.53;5.20;;;;;;;;;;4933435;28;20234;-72
2022/01/31 02:30:55;;;;;;;25.00;5.83;;;;;;;;;;4883230;29;20318;-72
2022/01/31 02:33:29;;;;;;;23.43;5.20;;;;;;;;;;4924120;28;20233;-72
2022/01/31 02:35:59;;;;;;;28.27;5.97;;;;;;;;;;4907992;29;20242;-72
2022/01/31 02:38:28;;;;;;;22.93;5.30;;;;;;;;;;4895813;29;20314;-73
2022/01/31 02:41:00;;;;;;;21.87;5.20;;;;;;;;;;4868254;29;20598;-72
2022/01/31 02:43:30;;;;;;;22.97;6.00;;;;;;;;;;4879146;28;20231;-72
2022/01/31 02:45:59;;;;;;;21.90;5.07;;;;;;;;;;4917500;28;20245;-74
2022/01/31 02:48:42;;;;;;;25.97;5.63;;;;;;;;;;4915721;29;20246;-71
2022/01/31 02:51:12;;;;;;;19.90;5.17;;;;;;;;;;4887805;28;20227;-72
2022/01/31 02:53:41;;;;;;;25.97;5.47;;;;;;;;;;4893052;29;20226;-73
2022/01/31 02:56:11;;;;;;;20.97;5.80;;;;;;;;;;4935217;28;20242;-73
2022/01/31 02:58:39;;;;;;;22.60;4.73;;;;;;;;;;4937443;29;20309;-73
2022/01/31 03:01:08;;;;;;;24.93;4.87;;;;;;;;;;4904453;28;20251;-73
2022/01/31 03:03:40;;;;;;;18.03;4.83;;;;;;;;;;4933324;29;20649;-73
2022/01/31 03:06:07;;;;;;;21.50;5.20;;;;;;;;;;4916968;28;20245;-72
2022/01/31 03:08:42;;;;;;;23.37;5.07;;;;;;;;;;4917593;28;20286;-73
2022/01/31 03:11:21;;;;;;;25.60;5.77;;;;;;;;;;4914778;28;20613;-73
2022/01/31 03:13:58;;;;;;;31.83;6.00;;;;;;;;;;4901665;29;20222;-73
2022/01/31 03:16:24;;;;;;;20.10;5.63;;;;;;;;;;4906444;29;21534;-72
2022/01/31 03:19:17;;;;;;;16.53;4.77;;;;;;;;;;4920128;28;20235;-71
2022/01/31 03:21:55;;;;;;;17.43;4.73;;;;;;;;;;4922058;29;20227;-73
2022/01/31 03:24:21;;;;;;;22.87;5.80;;;;;;;;;;4888985;29;20641;-73
2022/01/31 03:26:51;;;;;;;20.87;6.07;;;;;;;;;;4883303;29;20714;-72
2022/01/31 03:29:20;;;;;;;22.33;5.00;;;;;;;;;;4893269;28;20226;-73
2022/01/31 03:31:49;;;;;;;19.77;5.37;;;;;;;;;;4918887;29;20733;-73
2022/01/31 03:34:15;;;;;;;23.43;5.60;;;;;;;;;;4895251;29;20228;-72
2022/01/31 03:36:45;;;;;;;20.53;5.30;;;;;;;;;;4899094;29;20220;-71
2022/01/31 03:39:31;;;;;;;20.80;4.87;;;;;;;;;;4921003;28;20285;-72
2022/01/31 03:42:03;;;;;;;23.77;5.73;;;;;;;;;;4951661;28;20616;-73
2022/01/31 03:44:30;;;;;;;19.17;5.20;;;;;;;;;;4926595;29;20718;-73
2022/01/31 03:46:57;;;;;;;28.00;5.83;;;;;;;;;;4867114;29;20251;-71
2022/01/31 03:49:26;;;;;;;21.57;5.00;;;;;;;;;;4875131;28;20243;-75
2022/01/31 03:52:06;;;;;;;21.53;5.07;;;;;;;;;;4907004;28;20222;-74
2022/01/31 03:54:56;;;;;;;22.23;5.37;;;;;;;;;;4928056;29;20608;-72
2022/01/31 03:57:28;;;;;;;22.03;4.93;;;;;;;;;;4897273;29;20637;-73
2022/01/31 04:00:27;;;;;;;20.67;4.80;;;;;;;;;;4897757;28;20237;-72
2022/01/31 04:02:56;;;;;;;20.30;5.20;;;;;;;;;;4935599;29;20238;-73
2022/01/31 04:05:23;;;;;;;23.13;5.40;;;;;;;;;;4942128;28;20243;-74
2022/01/31 04:07:49;;;;;;;17.57;4.40;;;;;;;;;;4912152;29;20219;-73
2022/01/31 04:10:20;;;;;;;19.27;5.40;;;;;;;;;;4956095;28;20223;-73
2022/01/31 04:12:49;;;;;;;20.13;4.80;;;;;;;;;;4951824;29;20227;-73
2022/01/31 04:15:18;;;;;;;23.50;4.90;;;;;;;;;;4909167;29;20234;-72
2022/01/31 04:17:52;;;;;;;17.27;4.70;;;;;;;;;;4918689;29;20224;-72
2022/01/31 04:20:26;;;;;;;20.47;5.13;;;;;;;;;;4907865;28;20231;-72
2022/01/31 04:23:03;;;;;;;26.23;5.23;;;;;;;;;;4935745;29;20265;-73
2022/01/31 04:25:42;;;;;;;20.20;5.10;;;;;;;;;;4913508;29;20227;-71
2022/01/31 04:28:29;;;;;;;20.97;5.00;;;;;;;;;;4889819;28;20595;-74
2022/01/31 04:31:09;;;;;;;18.57;5.00;;;;;;;;;;4916064;29;20231;-73
2022/01/31 04:33:37;;;;;;;24.00;5.30;;;;;;;;;;4929949;28;20229;-73
2022/01/31 04:36:10;;;;;;;22.27;5.13;;;;;;;;;;4923094;28;20239;-72
2022/01/31 04:38:37;;;;;;;19.17;5.13;;;;;;;;;;4903341;29;20235;-73
2022/01/31 04:41:09;;;;;;;19.97;5.10;;;;;;;;;;4910345;28;20272;-73
2022/01/31 04:43:36;;;;;;;21.17;5.50;;;;;;;;;;4929179;28;20719;-73
2022/01/31 04:46:10;;;;;;;21.20;5.03;;;;;;;;;;4923636;28;20266;-72
2022/01/31 04:48:39;;;;;;;19.90;4.87;;;;;;;;;;4901520;29;20231;-72
2022/01/31 04:51:11;;;;;;;20.93;4.90;;;;;;;;;;4942022;28;20245;-72
2022/01/31 04:53:39;;;;;;;21.97;4.80;;;;;;;;;;4914354;28;20277;-72
2022/01/31 04:56:12;;;;;;;23.03;4.57;;;;;;;;;;4939397;28;20231;-72
2022/01/31 04:58:40;;;;;;;22.40;4.63;;;;;;;;;;4900342;29;20318;-72
2022/01/31 05:01:12;;;;;;;16.43;4.70;;;;;;;;;;4938871;28;20606;-72
2022/01/31 05:03:38;;;;;;;19.67;4.87;;;;;;;;;;4919914;29;20222;-74
2022/01/31 05:06:09;;;;;;;22.87;5.00;;;;;;;;;;4900563;29;20246;-73
2022/01/31 05:08:36;;;;;;;18.43;4.60;;;;;;;;;;4882990;29;20327;-71
2022/01/31 05:11:08;;;;;;;17.60;4.73;;;;;;;;;;4890012;28;20793;-73
2022/01/31 05:13:37;;;;;;;19.23;5.20;;;;;;;;;;4932094;29;20272;-72
2022/01/31 05:16:05;;;;;;;16.90;4.60;;;;;;;;;;4899980;29;20242;-74
2022/01/31 05:18:35;;;;;;;21.03;5.33;;;;;;;;;;4894029;29;20238;-72
2022/01/31 05:21:01;;;;;;;19.67;5.50;;;;;;;;;;4923956;29;20226;-73
2022/01/31 05:23:35;;;;;;;19.60;4.77;;;;;;;;;;4908465;28;20219;-73
2022/01/31 05:26:06;;;;;;;20.70;5.10;;;;;;;;;;4906386;29;20229;-72
2022/01/31 05:28:33;;;;;;;20.37;5.50;;;;;;;;;;4890658;29;20227;-71
2022/01/31 05:31:02;;;;;;;20.73;4.83;;;;;;;;;;4905525;29;20218;-72
2022/01/31 05:33:28;;;;;;;18.00;5.07;;;;;;;;;;4948296;29;20223;-73
2022/01/31 05:36:00;;;;;;;21.27;5.43;;;;;;;;;;4932513;29;20290;-74
2022/01/31 05:38:27;;;;;;;18.13;4.70;;;;;;;;;;4900758;28;20235;-72
2022/01/31 05:41:08;;;;;;;18.17;5.23;;;;;;;;;;4921450;29;20230;-72
2022/01/31 05:43:37;;;;;;;14.93;5.27;;;;;;;;;;4955823;29;20234;-72
2022/01/31 05:46:03;;;;;;;17.50;5.43;;;;;;;;;;4912532;28;20612;-72
2022/01/31 05:48:32;;;;;;;21.17;5.43;;;;;;;;;;4919647;29;20294;-72
2022/01/31 05:50:59;;;;;;;19.50;4.87;;;;;;;;;;4904846;29;20598;-72
2022/01/31 05:53:45;;;;;;;16.00;5.03;;;;;;;;;;4918369;28;20366;-72
2022/01/31 05:56:35;;;;;;;17.13;4.93;;;;;;;;;;4906943;28;20656;-73
2022/01/31 05:59:02;;;;;;;16.07;4.40;;;;;;;;;;4935450;28;20238;-73
2022/01/31 06:01:31;;;;;;;23.10;5.73;;;;;;;;;;4921950;29;20226;-73
2022/01/31 06:04:04;;;;;;;17.23;5.13;;;;;;;;;;4950395;29;20222;-73
2022/01/31 06:06:33;;;;;;;19.30;5.50;;;;;;;;;;4948671;29;20700;-71
2022/01/31 06:09:09;;;;;;;16.43;4.77;;;;;;;;;;4919534;29;20231;-71
2022/01/31 06:11:38;;;;;;;13.50;4.97;;;;;;;;;;4937575;28;20230;-71
2022/01/31 06:14:09;;;;;;;14.97;4.53;;;;;;;;;;4929835;28;20366;-72
2022/01/31 06:16:43;;;;;;;20.97;4.90;;;;;;;;;;4926322;29;20720;-73
2022/01/31 06:19:23;;;;;;;15.70;4.67;;;;;;;;;;4960881;28;20238;-73
2022/01/31 06:21:53;;;;;;;16.30;4.67;;;;;;;;;;4909215;29;20220;-71
2022/01/31 06:24:25;;;;;;;15.07;4.27;;;;;;;;;;4915469;29;22753;-72
2022/01/31 06:26:53;;;;;;;16.00;4.73;;;;;;;;;;4922894;29;20215;-72
2022/01/31 06:29:22;;;;;;;12.40;4.47;;;;;;;;;;4921593;28;20326;-72
2022/01/31 06:32:04;;;;;;;12.47;4.63;;;;;;;;;;4934577;29;20211;-72
2022/01/31 06:34:36;;;;;;;13.30;5.17;;;;;;;;;;4878332;29;20250;-72
2022/01/31 06:37:07;;;;;;;14.80;4.40;;;;;;;;;;4913399;29;20238;-73
2022/01/31 06:39:34;;;;;;;10.57;4.13;;;;;;;;;;4936509;29;20513;-72
2022/01/31 06:42:09;;;;;;;11.43;3.87;;;;;;;;;;4905615;28;20237;-73
2022/01/31 06:44:48;;;;;;;10.47;4.50;;;;;;;;;;4937694;29;20215;-71
2022/01/31 06:47:20;;;;;;;10.20;4.30;;;;;;;;;;4925773;28;20223;-72
2022/01/31 06:49:50;;;;;;;9.53;4.37;;;;;;;;;;4913956;29;20253;-72
2022/01/31 06:52:25;;;;;;;8.57;4.37;;;;;;;;;;4918462;28;20709;-71
2022/01/31 06:54:55;;;;;;;8.40;4.40;;;;;;;;;;4920694;29;20250;-72
2022/01/31 06:57:33;;;;;;;8.43;4.30;;;;;;;;;;4920664;28;20226;-71
2022/01/31 07:00:12;;;;;;;6.73;3.97;;;;;;;;;;4938781;29;20570;-73
2022/01/31 07:02:38;;;;;;;8.37;4.07;;;;;;;;;;4913081;29;20351;-74
2022/01/31 07:05:07;;;;;;;6.27;4.27;;;;;;;;;;4874327;29;20818;-73
2022/01/31 07:07:34;;;;;;;9.70;4.40;;;;;;;;;;4892020;28;20219;-72
2022/01/31 07:10:06;;;;;;;7.93;4.20;;;;;;;;;;4937036;28;20243;-74
2022/01/31 07:12:40;;;;;;;9.63;4.57;;;;;;;;;;4909566;29;20223;-73
2022/01/31 07:15:31;;;;;;;5.30;4.00;;;;;;;;;;4894083;28;20224;-72
2022/01/31 07:18:00;;;;;;;5.93;3.90;;;;;;;;;;4909574;29;20218;-73
2022/01/31 07:20:41;;;;;;;5.83;4.30;;;;;;;;;;4930643;28;20226;-74
2022/01/31 07:23:18;;;;;;;6.73;4.37;;;;;;;;;;4912179;28;20676;-72
2022/01/31 07:25:45;;;;;;;7.30;4.70;;;;;;;;;;4936227;29;20707;-72
2022/01/31 07:28:12;;;;;;;5.00;4.37;;;;;;;;;;4937794;28;20812;-71
2022/01/31 07:30:48;;;;;;;6.03;4.50;;;;;;;;;;4879468;29;20621;-72
2022/01/31 07:33:18;;;;;;;5.80;4.40;;;;;;;;;;4904733;28;20361;-73
2022/01/31 07:35:59;;;;;;;6.10;4.10;;;;;;;;;;4907141;29;20680;-72
2022/01/31 07:38:32;;;;;;;5.27;3.70;;;;;;;;;;4918398;29;20226;-73
2022/01/31 07:41:24;;;;;;;5.60;3.93;;;;;;;;;;4920690;29;20307;-73
2022/01/31 07:43:54;;;;;;;5.37;4.30;;;;;;;;;;4919290;29;20234;-72
2022/01/31 07:46:21;;;;;;;6.20;4.47;;;;;;;;;;4951155;28;20318;-71
2022/01/31 07:48:49;;;;;;;6.97;4.37;;;;;;;;;;4904851;29;20731;-73
2022/01/31 07:51:23;;;;;;;4.97;4.43;;;;;;;;;;4942800;28;20250;-73
2022/01/31 07:54:10;;;;;;;5.80;4.40;;;;;;;;;;4930610;29;20223;-73
2022/01/31 07:56:37;;;;;;;6.47;4.77;;;;;;;;;;4918646;29;20249;-71
2022/01/31 07:59:07;;;;;;;5.20;4.10;;;;;;;;;;4907090;28;20611;-73
2022/01/31 08:01:36;;;;;;;5.50;4.17;;;;;;;;;;4936762;28;20257;-72
2022/01/31 08:04:06;;;;;;;8.17;4.60;;;;;;;;;;4900727;28;20218;-72
2022/01/31 08:06:32;;;;;;;5.60;4.57;;;;;;;;;;4937152;29;20219;-72
2022/01/31 08:09:01;;;;;;;5.83;4.30;;;;;;;;;;4906892;29;20442;-71
2022/01/31 08:11:33;;;;;;;4.93;4.43;;;;;;;;;;4883765;29;20260;-72
2022/01/31 08:14:07;;;;;;;7.33;4.90;;;;;;;;;;4876029;29;20224;-72
2022/01/31 08:16:34;;;;;;;4.87;3.73;;;;;;;;;;4858435;29;20323;-72
2022/01/31 08:19:07;;;;;;;5.40;4.17;;;;;;;;;;4895587;29;20305;-73
2022/01/31 08:21:37;;;;;;;5.17;4.23;;;;;;;;;;4908456;29;20234;-72
2022/01/31 08:24:07;;;;;;;4.83;4.00;;;;;;;;;;4914479;29;20751;-72
2022/01/31 08:26:37;;;;;;;5.50;4.00;;;;;;;;;;4899035;29;20244;-73
2022/01/31 08:29:32;;;;;;;4.73;4.23;;;;;;;;;;4936046;28;20653;-72
2022/01/31 08:32:04;;;;;;;5.77;4.43;;;;;;;;;;4946123;28;20261;-72
2022/01/31 08:37:19;;;;;;;5.40;4.37;;;;;;;;;;4906394;28;20314;-72
2022/01/31 08:39:51;;;;;;;4.87;4.37;;;;;;;;;;4912274;29;20301;-73
2022/01/31 08:42:31;;;;;;;6.13;4.43;;;;;;;;;;4910382;29;20702;-73
2022/01/31 08:45:01;;;;;;;4.87;4.47;;;;;;;;;;4903289;29;20223;-72
2022/01/31 08:47:41;;;;;;;4.57;4.10;;;;;;;;;;4904455;29;20284;-73
2022/01/31 08:50:19;;;;;;;4.27;3.87;;;;;;;;;;4920726;28;20318;-73
2022/01/31 08:52:45;;;;;;;4.30;3.90;;;;;;;;;;4887139;29;20223;-72
2022/01/31 08:55:36;;;;;;;6.07;3.97;;;;;;;;;;4915064;28;20230;-73
2022/01/31 08:58:06;;;;;;;4.70;4.20;;;;;;;;;;4904743;29;20226;-72
2022/01/31 09:00:36;;;;;;;4.40;4.00;;;;;;;;;;4898470;29;20227;-72
2022/01/31 09:05:39;;;;;;;4.57;3.97;;;;;;;;;;4913585;29;20223;-74
2022/01/31 09:08:05;;;;;;;5.23;4.50;;;;;;;;;;4881527;29;20235;-73
2022/01/31 09:10:35;;;;;;;4.10;3.70;;;;;;;;;;4895716;29;20741;-74
2022/01/31 09:13:01;;;;;;;4.30;3.90;;;;;;;;;;4940305;28;20242;-72
2022/01/31 09:15:27;;;;;;;5.53;4.23;;;;;;;;;;4923617;29;20306;-74
2022/01/31 09:17:57;;;;;;;4.20;3.87;;;;;;;;;;4900455;29;20247;-74
2022/01/31 09:20:24;;;;;;;4.70;3.90;;;;;;;;;;4913940;28;20647;-74
2022/01/31 09:22:55;;;;;;;5.73;3.80;;;;;;;;;;4900579;29;20890;-73
2022/01/31 09:25:26;;;;;;;4.30;3.90;;;;;;;;;;4931520;29;20701;-73
2022/01/31 09:27:52;;;;;;;3.53;3.23;;;;;;;;;;4889158;29;20703;-73
2022/01/31 09:30:22;;;;;;;5.17;4.17;;;;;;;;;;4918994;28;20227;-74
2022/01/31 09:33:01;;;;;;;4.83;4.10;;;;;;;;;;4951511;29;20224;-73
2022/01/31 09:35:34;;;;;;;4.93;3.63;;;;;;;;;;4910372;29;20237;-73
2022/01/31 09:38:08;;;;;;;4.50;3.63;;;;;;;;;;4902028;29;20314;-73
2022/01/31 09:40:38;;;;;;;4.17;3.77;;;;;;;;;;4918486;29;20736;-73
2022/01/31 09:48:43;;;;;;;3.87;3.57;;;;;;;;;;4909947;29;20306;-73
2022/01/31 09:51:28;;;;;;;3.77;3.47;;;;;;;;;;4918503;28;20827;-73
2022/01/31 09:54:03;;;;;;;3.83;3.40;;;;;;;;;;4935100;29;20222;-73
2022/01/31 09:56:37;;;;;;;4.40;3.30;;;;;;;;;;4901860;29;20242;-73
2022/01/31 09:59:10;;;;;;;4.87;3.63;;;;;;;;;;4876744;29;20231;-71
2022/01/31 10:01:49;;;;;;;3.73;3.43;;;;;;;;;;4911260;28;20222;-72
2022/01/31 10:04:18;;;;;;;3.57;3.27;;;;;;;;;;4902246;29;20222;-72
2022/01/31 10:06:53;;;;;;;3.83;3.13;;;;;;;;;;4901240;29;20227;-74
2022/01/31 10:09:29;;;;;;;3.80;3.50;;;;;;;;;;4857715;29;20614;-73
2022/01/31 10:12:23;;;;;;;4.40;3.30;;;;;;;;;;4940676;29;20225;-72
2022/01/31 10:17:44;;;;;;;4.60;3.60;;;;;;;;;;4935445;28;20229;-73
2022/01/31 10:20:22;;;;;;;3.70;3.40;;;;;;;;;;4932707;28;20227;-74
2022/01/31 10:22:53;;;;;;;3.83;3.53;;;;;;;;;;4897829;29;20231;-73
2022/01/31 10:25:23;;;;;;;3.50;3.20;;;;;;;;;;4892767;29;21190;-73
2022/01/31 10:27:56;;;;;;;3.50;3.20;;;;;;;;;;4920097;29;20229;-73
2022/01/31 10:30:26;;;;;;;4.70;3.53;;;;;;;;;;4898236;29;22744;-73
2022/01/31 10:32:57;;;;;;;3.50;3.20;;;;;;;;;;4921901;29;20718;-73
2022/01/31 10:35:32;;;;;;;3.40;3.10;;;;;;;;;;4927829;29;20238;-73
2022/01/31 10:38:14;;;;;;;3.73;3.43;;;;;;;;;;4939568;29;20241;-73
2022/01/31 10:50:42;;;;;;;3.27;2.97;;;;;;;;;;4936318;28;20310;-72
2022/01/31 10:52:32;;;;;;;2.90;2.70;;;;;;;;;;4926877;29;20772;-72
2022/01/31 10:55:15;;;;;;;3.00;2.80;;;;;;;;;;4922464;29;20286;-73
2022/01/31 10:58:12;;;;;;;2.90;2.63;;;;;;;;;;4923145;29;20219;-73
2022/01/31 11:00:41;;;;;;;4.07;2.80;;;;;;;;;;4907257;29;20231;-73
2022/01/31 11:03:28;;;;;;;3.57;3.27;;;;;;;;;;4920080;28;20237;-73
2022/01/31 11:06:08;;;;;;;3.63;3.07;;;;;;;;;;4929178;29;20223;-72
2022/01/31 11:08:42;;;;;;;3.40;3.10;;;;;;;;;;4921991;29;20227;-72
2022/01/31 11:11:09;;;;;;;3.23;2.90;;;;;;;;;;4879397;28;20224;-72
2022/01/31 11:13:41;;;;;;;3.60;3.30;;;;;;;;;;4903946;29;20302;-74
2022/01/31 11:16:08;;;;;;;3.50;3.20;;;;;;;;;;4885777;28;20246;-75
2022/01/31 11:18:35;;;;;;;3.47;3.17;;;;;;;;;;4922568;28;20281;-74
2022/01/31 11:21:07;;;;;;;5.67;3.60;;;;;;;;;;4921206;29;20227;-72
2022/01/31 11:23:42;;;;;;;3.47;3.13;;;;;;;;;;4898748;29;20224;-72
2022/01/31 11:26:13;;;;;;;3.07;2.87;;;;;;;;;;4868605;29;20228;-72
2022/01/31 11:28:49;;;;;;;3.83;3.00;;;;;;;;;;4869894;29;20243;-73
2022/01/31 11:31:25;;;;;;;3.53;3.13;;;;;;;;;;4892780;29;20238;-73
2022/01/31 11:33:58;;;;;;;4.67;3.40;;;;;;;;;;4903803;29;20363;-73
2022/01/31 11:36:29;;;;;;;3.83;3.50;;;;;;;;;;4901328;29;20298;-71
2022/01/31 11:38:56;;;;;;;4.80;3.23;;;;;;;;;;4901217;29;20227;-73
2022/01/31 11:41:25;;;;;;;4.40;3.40;;;;;;;;;;4917368;29;20228;-72
2022/01/31 11:43:58;;;;;;;4.80;3.40;;;;;;;;;;4920983;29;20234;-72
2022/01/31 11:46:27;;;;;;;3.50;3.20;;;;;;;;;;4919383;28;20669;-72
2022/01/31 11:48:57;;;;;;;5.00;3.30;;;;;;;;;;4899656;29;20228;-72
2022/01/31 11:51:24;;;;;;;8.13;6.23;;;;;;;;;;4874089;29;20260;-72
2022/01/31 11:53:51;;;;;;;3.70;3.40;;;;;;;;;;4915396;29;20671;-72
2022/01/31 11:56:22;;;;;;;3.63;3.23;;;;;;;;;;4898203;28;20230;-73
2022/01/31 11:58:51;;;;;;;4.00;3.47;;;;;;;;;;4931128;28;20309;-72
2022/01/31 12:01:24;;;;;;;3.53;3.23;;;;;;;;;;4918696;28;20664;-73
2022/01/31 12:04:00;;;;;;;3.60;3.30;;;;;;;;;;4902483;29;20726;-71
2022/01/31 12:06:27;;;;;;;3.83;3.50;;;;;;;;;;4882951;29;20227;-72
2022/01/31 12:08:54;;;;;;;5.60;4.40;;;;;;;;;;4912534;29;20218;-72
2022/01/31 12:11:28;;;;;;;4.53;4.13;;;;;;;;;;4898093;28;20231;-72
2022/01/31 12:14:08;;;;;;;4.13;3.83;;;;;;;;;;4937257;29;20314;-72
2022/01/31 12:19:34;;;;;;;4.67;4.17;;;;;;;;;;4935923;28;20255;-74
2022/01/31 12:22:38;;;;;;;4.53;4.13;;;;;;;;;;4920731;29;20306;-71
2022/01/31 12:25:34;;;;;;;4.70;4.23;;;;;;;;;;4933803;29;20227;-73
2022/01/31 12:28:36;;;;;;;6.43;5.30;;;;;;;;;;4928782;29;20334;-72
2022/01/31 12:31:36;;;;;;;6.53;5.80;;;;;;;;;;4924192;29;20759;-71
2022/01/31 12:34:09;;;;;;;5.90;5.30;;;;;;;;;;4917437;28;20740;-73
2022/01/31 12:36:39;;;;;;;6.43;5.83;;;;;;;;;;4921154;29;20231;-71
2022/01/31 12:39:38;;;;;;;6.93;5.87;;;;;;;;;;4945349;28;20231;-72
2022/01/31 12:42:51;;;;;;;6.57;5.97;;;;;;;;;;4928710;28;20250;-71
2022/01/31 12:45:39;;;;;;;6.30;5.37;;;;;;;;;;4906680;29;20231;-73
2022/01/31 12:48:20;;;;;;;6.77;5.70;;;;;;;;;;4930136;28;20362;-72
2022/01/31 12:50:48;;;;;;;6.70;6.00;;;;;;;;;;4930440;28;20225;-71
2022/01/31 12:53:47;;;;;;;6.33;5.73;;;;;;;;;;4946151;28;20226;-72
2022/01/31 12:56:25;;;;;;;6.87;6.10;;;;;;;;;;4931210;28;20281;-73
2022/01/31 12:59:19;;;;;;;6.40;5.50;;;;;;;;;;4886491;29;20227;-73
2022/01/31 13:01:49;;;;;;;6.60;5.30;;;;;;;;;;4931397;29;20215;-72
2022/01/31 13:04:27;;;;;;;6.30;5.70;;;;;;;;;;4900617;28;20230;-73
2022/01/31 13:07:12;;;;;;;6.33;5.73;;;;;;;;;;4886013;29;20215;-71
2022/01/31 13:09:43;;;;;;;6.53;5.83;;;;;;;;;;4930589;29;20314;-72
2022/01/31 13:12:17;;;;;;;6.90;6.20;;;;;;;;;;4959916;28;20222;-72
2022/01/31 13:14:49;;;;;;;8.97;6.53;;;;;;;;;;4922826;29;20245;-72
2022/01/31 13:17:24;;;;;;;7.57;6.47;;;;;;;;;;4886366;28;20310;-72
2022/01/31 13:19:58;;;;;;;6.40;5.70;;;;;;;;;;4914866;29;20254;-72
2022/01/31 13:22:59;;;;;;;7.20;5.90;;;;;;;;;;4902420;28;20227;-73
2022/01/31 13:25:36;;;;;;;6.00;5.40;;;;;;;;;;4906762;29;20226;-71
2022/01/31 13:28:08;;;;;;;6.10;5.50;;;;;;;;;;4897339;29;20228;-72
2022/01/31 13:30:49;;;;;;;5.10;4.60;;;;;;;;;;4926221;28;20261;-78
2022/01/31 13:33:21;;;;;;;5.53;5.03;;;;;;;;;;4934719;28;20737;-72
2022/01/31 13:36:05;;;;;;;6.90;5.83;;;;;;;;;;4896041;29;20306;-71
2022/01/31 13:38:35;;;;;;;6.10;5.47;;;;;;;;;;4897714;29;20227;-72
2022/01/31 13:41:04;;;;;;;6.57;5.33;;;;;;;;;;4909688;29;20665;-73
2022/01/31 13:43:42;;;;;;;5.10;4.47;;;;;;;;;;4933178;29;20223;-73
2022/01/31 13:46:24;;;;;;;5.03;4.47;;;;;;;;;;4896711;29;20228;-72
2022/01/31 13:51:41;;;;;;;5.73;4.97;;;;;;;;;;4935875;28;20263;-72
2022/01/31 13:54:21;;;;;;;5.70;5.10;;;;;;;;;;4931948;28;20220;-72
2022/01/31 13:56:51;;;;;;;5.90;4.93;;;;;;;;;;4900352;29;20283;-71
2022/01/31 13:59:24;;;;;;;5.97;5.33;;;;;;;;;;4898764;28;20227;-71
2022/01/31 14:02:28;;;;;;;7.43;6.07;;;;;;;;;;4904507;29;20360;-72
2022/01/31 14:05:04;;;;;;;6.50;5.90;;;;;;;;;;4923608;29;20225;-72
2022/01/31 14:08:09;;;;;;;7.33;6.50;;;;;;;;;;4921828;29;20221;-71
2022/01/31 14:10:36;;;;;;;6.53;5.77;;;;;;;;;;4914681;29;20227;-72
2022/01/31 14:13:07;;;;;;;8.40;6.90;;;;;;;;;;4906633;28;20230;-73
2022/01/31 14:15:43;;;;;;;6.50;5.73;;;;;;;;;;4910779;29;20238;-72
2022/01/31 14:18:23;;;;;;;6.07;5.47;;;;;;;;;;4897500;28;20774;-72
2022/01/31 14:21:01;;;;;;;9.57;6.43;;;;;;;;;;4932462;29;20325;-72
2022/01/31 14:23:36;;;;;;;6.50;5.70;;;;;;;;;;4905255;29;20254;-71
2022/01/31 14:26:10;;;;;;;6.70;5.67;;;;;;;;;;4904506;29;20227;-71
2022/01/31 14:28:48;;;;;;;7.73;5.40;;;;;;;;;;4886735;29;20307;-71
2022/01/31 14:31:15;;;;;;;6.20;5.23;;;;;;;;;;4897477;28;20237;-72
2022/01/31 14:33:46;;;;;;;7.17;5.27;;;;;;;;;;4882462;29;20219;-72
2022/01/31 14:36:15;;;;;;;6.40;5.13;;;;;;;;;;4892522;29;20236;-72
2022/01/31 14:50:14;;;;;;;8.93;6.73;;;;;;;;;;4891382;29;20235;-72
2022/01/31 14:52:44;;;;;;;13.43;7.73;;;;;;;;;;4904524;28;20226;-72
2022/01/31 14:55:18;;;;;;;9.80;7.87;;;;;;;;;;4927805;28;20763;-73
2022/01/31 14:57:44;;;;;;;8.50;6.63;;;;;;;;;;4921952;29;20293;-73
2022/01/31 15:00:21;;;;;;;10.67;7.83;;;;;;;;;;4889938;28;20290;-73
2022/01/31 15:02:53;;;;;;;10.30;7.53;;;;;;;;;;4922800;29;20218;-72
2022/01/31 15:05:27;;;;;;;12.40;7.57;;;;;;;;;;4934160;28;20219;-72
2022/01/31 15:07:59;;;;;;;8.40;6.67;;;;;;;;;;4898515;29;20420;-71
2022/01/31 15:10:31;;;;;;;9.40;6.30;;;;;;;;;;4904845;28;20242;-72
2022/01/31 15:13:03;;;;;;;9.57;7.40;;;;;;;;;;4937702;29;20717;-72
2022/01/31 15:15:35;;;;;;;8.03;6.13;;;;;;;;;;4917664;29;20230;-72
2022/01/31 15:18:02;;;;;;;10.20;7.10;;;;;;;;;;4919880;29;20223;-71
2022/01/31 15:20:33;;;;;;;10.20;6.63;;;;;;;;;;4887313;29;20223;-72
2022/01/31 15:23:06;;;;;;;12.10;7.67;;;;;;;;;;4931145;28;20260;-71
2022/01/31 15:25:44;;;;;;;10.53;6.40;;;;;;;;;;4908557;29;20361;-71
2022/01/31 15:28:13;;;;;;;10.83;7.30;;;;;;;;;;4896124;28;20231;-72
2022/01/31 15:30:42;;;;;;;8.80;7.33;;;;;;;;;;4921077;28;20230;-72
2022/01/31 15:33:12;;;;;;;9.53;6.90;;;;;;;;;;4951164;28;20226;-73
2022/01/31 15:35:42;;;;;;;7.47;6.30;;;;;;;;;;4920573;29;20254;-72
2022/01/31 15:38:14;;;;;;;9.57;6.30;;;;;;;;;;4903136;28;20234;-72
2022/01/31 15:40:47;;;;;;;7.70;5.80;;;;;;;;;;4907842;29;20227;-72
2022/01/31 15:43:29;;;;;;;7.97;5.47;;;;;;;;;;4949337;28;20226;-72
2022/01/31 15:46:12;;;;;;;8.67;5.20;;;;;;;;;;4921967;29;20302;-74
2022/01/31 15:48:39;;;;;;;4.50;4.10;;;;;;;;;;4902408;29;20227;-72
2022/01/31 15:51:10;;;;;;;6.33;4.73;;;;;;;;;;4919959;28;20662;-73
2022/01/31 15:53:37;;;;;;;7.87;5.37;;;;;;;;;;4939038;29;20222;-72